Indian Harbour Beach, Florida
Current Conditions -  °F | °C
As of 7:58 AM on Saturday 25 Oct 2014 (Local Time) from KCOF Reporting Station
Few Clouds Few Clouds  
Wind Chill: 67°   Ceiling: Unl
Heat Index: 67°   Visibility: 10mi
Dew Point: 58°   Wind: 15mph
Humidity: 75%   Direction: 320°NW
Pressure: 29.95"   Gusts: NA
Location:  28.1733°N, 80.598°W
Report Text: KCOF 251158Z AUTO 32013KT 10SM FEW050 19/15 A2995 RMK AO2 SLP146 T01920146 10210 20192 52010
Loading
Personal Weather Stations






























Interactive Weather Map
Tropical Storm Tracking
New forecast layout! Learn more

10-Day Weather Forecast

Advertisements
Track Severe Weather on mobile